createdAt,value
2019-05-26T00:02:10.189Z,84.80
2019-05-26T00:04:39.624Z,85.00
2019-05-26T00:07:09.040Z,85.10
2019-05-26T00:09:38.435Z,85.20
2019-05-26T00:12:08.624Z,85.30
2019-05-26T00:14:38.018Z,85.50
2019-05-26T00:17:07.475Z,85.70
2019-05-26T00:19:37.025Z,86.00
2019-05-26T00:22:06.500Z,86.00
2019-05-26T00:24:36.211Z,86.10
2019-05-26T00:27:05.635Z,86.10
2019-05-26T00:29:35.193Z,86.10
2019-05-26T00:32:04.571Z,86.30
2019-05-26T00:34:33.935Z,86.40
2019-05-26T00:37:03.338Z,86.50
2019-05-26T00:39:32.807Z,86.70
2019-05-26T00:42:02.131Z,86.70
2019-05-26T00:44:31.566Z,86.80
2019-05-26T00:47:01.060Z,86.80
2019-05-26T00:49:30.476Z,86.90
2019-05-26T00:51:59.985Z,86.80
2019-05-26T00:54:29.396Z,86.90
2019-05-26T00:56:58.804Z,86.90
2019-05-26T00:59:28.183Z,87.00
2019-05-26T01:01:57.976Z,87.10
2019-05-26T01:04:30.795Z,87.10
2019-05-26T01:07:00.830Z,87.10
2019-05-26T01:09:30.888Z,87.20
2019-05-26T01:12:01.917Z,87.30
2019-05-26T01:14:33.708Z,87.30
2019-05-26T01:17:03.495Z,87.30
2019-05-26T01:19:33.102Z,87.40
2019-05-26T01:22:03.264Z,87.40
2019-05-26T01:24:35.803Z,87.40
2019-05-26T01:27:05.127Z,87.50
2019-05-26T01:29:34.695Z,87.50
2019-05-26T01:32:04.085Z,87.40
2019-05-26T01:34:35.210Z,87.40
2019-05-26T01:37:06.418Z,87.40
2019-05-26T01:39:42.994Z,87.40
2019-05-26T01:42:14.861Z,87.30
2019-05-26T01:44:48.279Z,87.30
2019-05-26T01:47:21.040Z,87.20
2019-05-26T01:50:04.264Z,87.30
2019-05-26T01:52:49.975Z,87.20
2019-05-26T01:55:20.879Z,87.30
2019-05-26T01:57:51.752Z,87.40
2019-05-26T02:00:23.987Z,87.50
2019-05-26T02:02:58.731Z,87.60
2019-05-26T02:05:31.938Z,87.70
2019-05-26T02:08:11.895Z,87.90
2019-05-26T02:10:41.178Z,88.00
2019-05-26T02:13:12.460Z,88.10
2019-05-26T02:15:44.450Z,88.20
2019-05-26T02:18:18.193Z,88.40
2019-05-26T02:20:52.844Z,88.70
2019-05-26T02:23:27.006Z,88.90
2019-05-26T02:25:57.994Z,89.30
2019-05-26T02:28:32.580Z,89.50
2019-05-26T02:31:04.981Z,89.70
2019-05-26T02:33:40.327Z,89.90
2019-05-26T02:36:12.907Z,90.00
2019-05-26T02:39:01.471Z,90.10
2019-05-26T02:41:21.488Z,90.10
2019-05-26T02:43:54.130Z,90.20
2019-05-26T02:46:25.904Z,90.20
2019-05-26T02:48:58.603Z,90.30
2019-05-26T02:51:30.993Z,90.30
2019-05-26T02:54:03.074Z,90.40
2019-05-26T02:56:40.237Z,90.40
2019-05-26T02:59:12.393Z,90.40
2019-05-26T03:02:00.802Z,90.50
2019-05-26T03:04:18.503Z,90.50
2019-05-26T03:06:51.827Z,90.50
2019-05-26T03:09:25.848Z,90.50
2019-05-26T03:11:59.212Z,90.60
2019-05-26T03:14:34.272Z,90.60
2019-05-26T03:17:06.294Z,90.70
2019-05-26T03:19:39.583Z,90.70
2019-05-26T03:22:13.116Z,90.70
2019-05-26T03:24:45.119Z,90.70
2019-05-26T03:27:14.496Z,90.80
2019-05-26T03:29:45.476Z,90.80
2019-05-26T03:32:16.169Z,90.80
2019-05-26T03:34:48.243Z,90.80
2019-05-26T03:37:18.597Z,90.80
2019-05-26T03:39:48.677Z,90.80
2019-05-26T03:42:18.470Z,90.80
2019-05-26T03:44:47.869Z,90.70
2019-05-26T03:47:17.398Z,90.70
2019-05-26T03:49:47.076Z,90.70
2019-05-26T03:52:16.727Z,90.70
2019-05-26T03:54:49.228Z,90.80
2019-05-26T03:57:18.641Z,90.80
2019-05-26T03:59:48.034Z,90.80
2019-05-26T04:02:17.494Z,90.90
2019-05-26T04:04:46.904Z,90.90
2019-05-26T04:07:16.292Z,91.00
2019-05-26T04:10:03.030Z,91.00
2019-05-26T04:12:16.737Z,91.00
2019-05-26T04:14:46.164Z,91.00
2019-05-26T04:17:15.550Z,91.00
2019-05-26T04:19:45.691Z,90.90
2019-05-26T04:22:15.030Z,90.80
2019-05-26T04:24:44.545Z,90.70
2019-05-26T04:27:13.949Z,90.60
2019-05-26T04:29:43.344Z,90.50
2019-05-26T04:32:12.756Z,90.50
2019-05-26T04:34:42.140Z,90.40
2019-05-26T04:37:11.533Z,90.30
2019-05-26T04:39:40.923Z,90.20
2019-05-26T04:42:10.323Z,90.10
2019-05-26T04:44:39.744Z,90.00
2019-05-26T04:47:09.232Z,89.80
2019-05-26T04:49:38.635Z,89.80
2019-05-26T04:52:08.084Z,89.70
2019-05-26T04:54:37.534Z,89.70
2019-05-26T04:57:07.053Z,89.70
2019-05-26T04:59:36.466Z,89.70
2019-05-26T05:02:05.901Z,89.70
2019-05-26T05:04:35.331Z,89.70
2019-05-26T05:07:04.761Z,89.70
2019-05-26T05:09:34.189Z,89.50
2019-05-26T05:12:03.680Z,89.30
2019-05-26T05:14:33.080Z,89.20
2019-05-26T05:17:02.492Z,89.10
2019-05-26T05:19:31.910Z,88.90
2019-05-26T05:22:01.367Z,88.80
2019-05-26T05:24:30.751Z,88.70
2019-05-26T05:27:00.214Z,88.30
2019-05-26T05:29:29.587Z,88.10
2019-05-26T05:31:59.104Z,88.00
2019-05-26T05:34:28.507Z,87.70
2019-05-26T05:36:57.914Z,87.50
2019-05-26T05:39:27.411Z,87.40
2019-05-26T05:41:56.926Z,87.10
2019-05-26T05:44:26.430Z,87.00
2019-05-26T05:46:55.840Z,86.70
2019-05-26T05:49:25.251Z,86.60
2019-05-26T05:51:54.653Z,86.30
2019-05-26T05:54:24.215Z,86.10
2019-05-26T05:56:55.714Z,86.10
2019-05-26T05:59:24.700Z,85.90
2019-05-26T06:01:54.089Z,85.60
2019-05-26T06:04:23.514Z,85.40
2019-05-26T06:06:52.901Z,85.20
2019-05-26T06:09:22.301Z,85.20
2019-05-26T06:11:56.481Z,85.00
2019-05-26T06:14:22.879Z,84.60
2019-05-26T06:16:52.319Z,84.50
2019-05-26T06:19:21.649Z,84.20
2019-05-26T06:21:51.122Z,84.60
2019-05-26T06:24:20.455Z,83.60
2019-05-26T06:26:49.980Z,83.30
2019-05-26T06:29:19.386Z,83.00
2019-05-26T06:31:49.099Z,82.70
2019-05-26T06:34:18.741Z,82.30
2019-05-26T06:36:48.124Z,81.70
2019-05-26T06:39:17.520Z,81.30
2019-05-26T06:41:46.923Z,81.20
2019-05-26T06:44:16.602Z,80.80
2019-05-26T06:46:45.983Z,80.10
2019-05-26T06:49:15.423Z,79.70
2019-05-26T06:51:44.825Z,79.50
2019-05-26T06:54:14.327Z,79.30
2019-05-26T06:56:44.090Z,79.40
2019-05-26T06:59:13.501Z,78.20
2019-05-26T07:01:42.898Z,78.20
2019-05-26T07:04:12.357Z,78.40
2019-05-26T07:06:42.093Z,78.20
2019-05-26T07:09:11.494Z,78.10
2019-05-26T07:11:55.625Z,77.90
2019-05-26T07:14:12.027Z,77.60
2019-05-26T07:16:41.431Z,77.30
2019-05-26T07:19:10.821Z,77.20
2019-05-26T07:21:40.273Z,76.60
2019-05-26T07:24:09.666Z,76.40
2019-05-26T07:26:39.119Z,76.00
2019-05-26T07:29:08.605Z,75.40
2019-05-26T07:31:38.023Z,75.30
2019-05-26T07:34:07.448Z,75.00
2019-05-26T07:36:36.853Z,75.00
2019-05-26T07:39:08.782Z,75.00
2019-05-26T07:41:38.169Z,74.00
2019-05-26T07:44:07.570Z,73.90
2019-05-26T07:46:37.012Z,73.40
2019-05-26T07:49:06.467Z,73.20
2019-05-26T07:51:35.892Z,72.60
2019-05-26T07:54:05.744Z,72.10
2019-05-26T07:56:35.287Z,71.90
2019-05-26T07:59:04.816Z,71.40
2019-05-26T08:01:36.063Z,71.20
2019-05-26T08:04:05.720Z,71.00
2019-05-26T08:06:35.131Z,70.90
2019-05-26T08:09:06.394Z,70.30
2019-05-26T08:11:35.842Z,69.70
2019-05-26T08:14:05.379Z,69.40
2019-05-26T08:16:34.802Z,68.80
2019-05-26T08:19:04.312Z,68.50
2019-05-26T08:21:33.824Z,68.00
2019-05-26T08:24:03.261Z,67.60
2019-05-26T08:26:32.656Z,66.90
2019-05-26T08:29:02.049Z,66.70
2019-05-26T08:31:31.473Z,66.10
2019-05-26T08:34:00.876Z,65.40
2019-05-26T08:36:30.279Z,64.70
2019-05-26T08:38:59.723Z,64.20
2019-05-26T08:41:29.104Z,63.90
2019-05-26T08:43:59.367Z,63.80
2019-05-26T08:46:28.899Z,63.20
2019-05-26T08:48:58.321Z,62.20
2019-05-26T08:51:27.709Z,62.10
2019-05-26T08:53:57.107Z,61.70
2019-05-26T08:56:26.573Z,61.20
2019-05-26T08:58:56.022Z,60.80
2019-05-26T09:01:25.951Z,60.70
2019-05-26T09:03:55.360Z,60.10
2019-05-26T09:06:24.762Z,59.80
2019-05-26T09:08:54.181Z,60.00
2019-05-26T09:11:24.140Z,60.70
2019-05-26T09:13:53.543Z,61.30
2019-05-26T09:16:22.952Z,61.00
2019-05-26T09:18:52.360Z,60.90
2019-05-26T09:21:21.764Z,61.20
2019-05-26T09:23:51.146Z,61.30
2019-05-26T09:26:21.014Z,60.70
2019-05-26T09:28:50.403Z,59.70
2019-05-26T09:31:19.855Z,59.00
2019-05-26T09:33:49.237Z,58.00
2019-05-26T09:36:18.607Z,57.00
2019-05-26T09:38:48.070Z,56.20
2019-05-26T09:41:17.454Z,55.80
2019-05-26T09:43:46.895Z,55.80
2019-05-26T09:46:16.270Z,56.10
2019-05-26T09:48:45.662Z,56.20
2019-05-26T09:51:15.048Z,56.40
2019-05-26T09:53:44.579Z,56.40
2019-05-26T09:56:14.038Z,56.80
2019-05-26T09:58:43.454Z,57.20
2019-05-26T10:01:12.859Z,56.90
2019-05-26T10:03:42.296Z,55.90
2019-05-26T10:06:11.700Z,54.80
2019-05-26T10:08:41.093Z,54.50
2019-05-26T10:11:10.499Z,54.30
2019-05-26T10:13:39.911Z,54.10
2019-05-26T10:16:09.281Z,53.90
2019-05-26T10:18:38.671Z,53.60
2019-05-26T10:21:08.072Z,53.30
2019-05-26T10:23:37.502Z,53.00
2019-05-26T10:26:06.925Z,53.10
2019-05-26T10:28:36.335Z,53.10
2019-05-26T10:31:05.760Z,53.10
2019-05-26T10:33:35.436Z,53.20
2019-05-26T10:36:04.843Z,53.20
2019-05-26T10:38:34.288Z,53.50
2019-05-26T10:41:03.883Z,53.90
2019-05-26T10:43:46.861Z,54.20
2019-05-26T10:46:07.004Z,54.60
2019-05-26T10:48:36.405Z,54.60
2019-05-26T10:51:06.968Z,54.70
2019-05-26T10:53:36.428Z,54.70
2019-05-26T10:56:05.965Z,54.40
2019-05-26T10:58:35.363Z,54.10
2019-05-26T11:01:04.887Z,53.70
2019-05-26T11:03:34.293Z,53.10
2019-05-26T11:06:03.796Z,52.60
2019-05-26T11:08:33.179Z,52.20
2019-05-26T11:11:02.598Z,51.70
2019-05-26T11:13:31.995Z,50.60
2019-05-26T11:16:01.404Z,50.20
2019-05-26T11:18:30.837Z,50.20
2019-05-26T11:21:00.252Z,50.10
2019-05-26T11:23:29.668Z,49.70
2019-05-26T11:25:59.052Z,49.00
2019-05-26T11:28:28.495Z,48.60
2019-05-26T11:30:57.815Z,47.70
2019-05-26T11:33:27.210Z,46.90
2019-05-26T11:35:56.608Z,47.00
2019-05-26T11:38:25.993Z,46.90
2019-05-26T11:40:55.422Z,46.60
2019-05-26T11:43:26.902Z,46.40
2019-05-26T11:45:56.311Z,45.70
2019-05-26T11:48:25.623Z,44.90
2019-05-26T11:50:56.491Z,45.20
2019-05-26T11:53:25.955Z,45.30
2019-05-26T11:55:55.460Z,44.70
2019-05-26T11:58:24.960Z,44.80
2019-05-26T12:00:54.323Z,45.30
2019-05-26T12:03:23.815Z,45.50
2019-05-26T12:05:53.287Z,45.70
2019-05-26T12:08:22.686Z,45.60
2019-05-26T12:10:52.094Z,45.60
2019-05-26T12:13:21.428Z,45.20
2019-05-26T12:15:50.812Z,45.20
2019-05-26T12:18:20.296Z,45.00
2019-05-26T12:20:49.692Z,45.20
2019-05-26T12:23:19.115Z,45.10
2019-05-26T12:25:48.787Z,45.00
2019-05-26T12:28:18.149Z,44.90
2019-05-26T12:30:47.556Z,44.80
2019-05-26T12:33:16.962Z,45.00
2019-05-26T12:35:46.811Z,44.80
2019-05-26T12:38:16.191Z,44.40
2019-05-26T12:40:45.599Z,43.90
2019-05-26T12:43:16.239Z,43.80
2019-05-26T12:45:45.642Z,43.70
2019-05-26T12:48:15.021Z,43.70
2019-05-26T12:50:44.412Z,43.90
2019-05-26T12:53:13.943Z,43.90
2019-05-26T12:55:43.355Z,44.00
2019-05-26T12:58:12.809Z,44.00
2019-05-26T13:00:48.662Z,44.10
2019-05-26T13:03:13.413Z,43.90
2019-05-26T13:05:43.520Z,43.70
2019-05-26T13:08:12.966Z,43.50
2019-05-26T13:10:42.345Z,43.10
2019-05-26T13:13:11.778Z,43.00
2019-05-26T13:15:41.185Z,42.60
2019-05-26T13:18:10.626Z,42.30
2019-05-26T13:20:40.030Z,41.60
2019-05-26T13:23:09.444Z,40.80
2019-05-26T13:25:38.854Z,40.30
2019-05-26T13:28:08.258Z,40.30
2019-05-26T13:30:38.351Z,39.20
2019-05-26T13:33:07.738Z,38.80
2019-05-26T13:35:37.621Z,38.80
2019-05-26T13:38:07.072Z,38.50
2019-05-26T13:40:36.488Z,38.10
2019-05-26T13:43:05.919Z,38.10
2019-05-26T13:45:35.333Z,38.60
2019-05-26T13:48:04.711Z,39.10
2019-05-26T13:50:34.119Z,39.60
2019-05-26T13:53:03.486Z,40.20
2019-05-26T13:55:32.935Z,40.70
2019-05-26T13:58:02.393Z,41.10
2019-05-26T14:00:31.824Z,41.10
2019-05-26T14:03:01.291Z,41.30
2019-05-26T14:05:30.741Z,41.20
2019-05-26T14:08:00.150Z,41.10
2019-05-26T14:10:34.291Z,41.20
2019-05-26T14:13:04.583Z,41.10
2019-05-26T14:15:38.606Z,41.30
2019-05-26T14:18:06.754Z,41.20
2019-05-26T14:20:40.208Z,41.10
2019-05-26T14:23:11.698Z,40.90
2019-05-26T14:25:41.068Z,40.90
2019-05-26T14:28:10.442Z,40.80
2019-05-26T14:30:39.859Z,40.50
2019-05-26T14:33:09.235Z,40.50
2019-05-26T14:35:38.643Z,40.50
2019-05-26T14:38:08.055Z,40.00
2019-05-26T14:40:37.471Z,39.70
2019-05-26T14:43:06.972Z,39.50
2019-05-26T14:45:36.501Z,39.30
2019-05-26T14:48:06.263Z,39.20
2019-05-26T14:50:35.727Z,39.10
2019-05-26T14:53:05.129Z,39.00
2019-05-26T14:55:34.578Z,39.20
2019-05-26T14:58:14.841Z,39.60
2019-05-26T15:00:35.037Z,39.80
2019-05-26T15:03:04.721Z,39.90
2019-05-26T15:05:34.057Z,39.60
2019-05-26T15:08:03.473Z,38.80
2019-05-26T15:10:32.894Z,38.20
2019-05-26T15:13:02.303Z,37.80
2019-05-26T15:15:34.908Z,37.60
2019-05-26T15:18:02.719Z,38.20
2019-05-26T15:20:32.113Z,38.70
2019-05-26T15:23:01.565Z,39.50
2019-05-26T15:25:31.048Z,40.00
2019-05-26T15:28:00.459Z,40.30
2019-05-26T15:30:29.950Z,40.20
2019-05-26T15:32:59.496Z,39.70
2019-05-26T15:35:28.916Z,39.00
2019-05-26T15:37:58.387Z,38.60
2019-05-26T15:40:27.921Z,38.50
2019-05-26T15:42:57.331Z,38.80
2019-05-26T15:45:26.763Z,39.10
2019-05-26T15:47:56.147Z,39.00
2019-05-26T15:50:25.570Z,38.50
2019-05-26T15:52:55.067Z,37.70
2019-05-26T15:55:24.469Z,36.20
2019-05-26T15:57:53.859Z,35.80
2019-05-26T16:00:23.620Z,35.20
2019-05-26T16:02:53.046Z,33.70
2019-05-26T16:05:22.375Z,32.60
2019-05-26T16:07:51.823Z,31.70
2019-05-26T16:10:21.222Z,30.60
2019-05-26T16:12:50.625Z,30.00
2019-05-26T16:15:20.259Z,29.80
2019-05-26T16:17:49.673Z,29.40
2019-05-26T16:20:19.191Z,28.90
2019-05-26T16:22:48.654Z,28.40
2019-05-26T16:25:18.079Z,28.50
2019-05-26T16:27:47.467Z,29.40
2019-05-26T16:30:17.511Z,30.50
2019-05-26T16:32:46.886Z,31.10
2019-05-26T16:35:16.331Z,31.20
2019-05-26T16:37:45.719Z,31.50
2019-05-26T16:40:15.122Z,31.60
2019-05-26T16:42:44.508Z,31.10
2019-05-26T16:45:14.227Z,30.10
2019-05-26T16:47:43.883Z,29.30
2019-05-26T16:50:13.511Z,28.80
2019-05-26T16:52:42.896Z,28.30
2019-05-26T16:55:12.379Z,27.90
2019-05-26T16:57:41.815Z,27.50
2019-05-26T17:00:11.800Z,27.30
2019-05-26T17:02:41.244Z,26.90
2019-05-26T17:05:10.818Z,26.50
2019-05-26T17:07:40.235Z,26.70
2019-05-26T17:10:09.928Z,26.90
2019-05-26T17:12:39.342Z,26.90
2019-05-26T17:15:08.888Z,27.20
2019-05-26T17:17:38.279Z,27.40
2019-05-26T17:20:08.694Z,27.90
2019-05-26T17:22:38.131Z,28.10
2019-05-26T17:25:07.729Z,28.20
2019-05-26T17:27:37.110Z,28.50
2019-05-26T17:30:06.671Z,29.00
2019-05-26T17:32:36.070Z,30.20
2019-05-26T17:35:05.773Z,31.80
2019-05-26T17:37:35.459Z,33.70
2019-05-26T17:40:05.803Z,35.00
2019-05-26T17:42:35.580Z,36.30
2019-05-26T17:45:05.646Z,37.50
2019-05-26T17:47:35.062Z,38.50
2019-05-26T17:50:05.530Z,39.40
2019-05-26T17:52:34.941Z,40.30
2019-05-26T17:55:04.860Z,41.10
2019-05-26T17:57:37.085Z,41.90
2019-05-26T18:00:06.659Z,42.60
2019-05-26T18:02:36.044Z,43.30
2019-05-26T18:05:05.792Z,43.90
2019-05-26T18:07:35.217Z,44.50
2019-05-26T18:10:04.744Z,44.90
2019-05-26T18:12:34.172Z,45.40
2019-05-26T18:15:03.558Z,45.80
2019-05-26T18:17:45.974Z,46.20
2019-05-26T18:20:04.496Z,46.70
2019-05-26T18:22:33.913Z,47.10
2019-05-26T18:25:03.508Z,47.70
2019-05-26T18:27:32.888Z,48.20
2019-05-26T18:30:02.288Z,48.60
2019-05-26T18:32:31.659Z,49.20
2019-05-26T18:35:01.266Z,49.60
2019-05-26T18:37:31.071Z,50.20
2019-05-26T18:40:00.495Z,50.20
2019-05-26T18:42:29.882Z,50.60
2019-05-26T18:44:59.448Z,51.00
2019-05-26T18:47:28.875Z,51.20
2019-05-26T18:49:58.298Z,51.50
2019-05-26T18:52:27.671Z,51.80
2019-05-26T18:54:57.067Z,52.10
2019-05-26T18:57:26.459Z,52.40
2019-05-26T18:59:55.944Z,52.80
2019-05-26T19:02:25.487Z,53.20
2019-05-26T19:04:54.923Z,53.60
2019-05-26T19:07:24.355Z,54.00
2019-05-26T19:09:53.778Z,54.40
2019-05-26T19:12:23.143Z,54.80
2019-05-26T19:14:52.511Z,55.10
2019-05-26T19:17:21.998Z,55.40
2019-05-26T19:19:51.459Z,55.60
2019-05-26T19:22:20.846Z,55.80
2019-05-26T19:24:50.280Z,56.00
2019-05-26T19:27:19.666Z,56.10
2019-05-26T19:29:49.071Z,56.30
2019-05-26T19:32:18.508Z,56.50
2019-05-26T19:34:48.008Z,56.60
2019-05-26T19:37:17.428Z,56.70
2019-05-26T19:39:46.855Z,56.80
2019-05-26T19:42:16.252Z,56.90
2019-05-26T19:44:45.679Z,57.10
2019-05-26T19:47:15.109Z,57.30
2019-05-26T19:49:44.487Z,57.80
2019-05-26T19:52:13.839Z,57.70
2019-05-26T19:54:43.240Z,58.00
2019-05-26T19:57:12.691Z,58.20
2019-05-26T19:59:42.098Z,58.50
2019-05-26T20:02:18.499Z,58.80
2019-05-26T20:04:42.692Z,59.10
2019-05-26T20:07:12.103Z,59.30
2019-05-26T20:09:41.568Z,59.70
2019-05-26T20:12:10.966Z,60.00
2019-05-26T20:14:40.664Z,60.50
2019-05-26T20:17:10.058Z,61.10
2019-05-26T20:19:39.488Z,61.50
2019-05-26T20:22:08.871Z,61.80
2019-05-26T20:24:38.457Z,62.10
2019-05-26T20:27:07.868Z,62.30
2019-05-26T20:29:37.262Z,62.50
2019-05-26T20:32:06.661Z,62.70
2019-05-26T20:34:36.029Z,62.80
2019-05-26T20:37:05.456Z,63.00
2019-05-26T20:39:34.910Z,63.40
2019-05-26T20:42:04.429Z,63.70
2019-05-26T20:44:33.850Z,64.00
2019-05-26T20:47:03.264Z,64.30
2019-05-26T20:49:44.927Z,64.50
2019-05-26T20:52:03.736Z,64.80
2019-05-26T20:54:33.144Z,65.20
2019-05-26T20:57:02.557Z,65.50
2019-05-26T20:59:31.987Z,65.80
2019-05-26T21:02:01.433Z,66.10
2019-05-26T21:04:31.155Z,66.40
2019-05-26T21:07:00.598Z,66.60
2019-05-26T21:09:29.992Z,67.00
2019-05-26T21:11:59.384Z,67.30
2019-05-26T21:14:28.803Z,67.60
2019-05-26T21:16:58.216Z,67.90
2019-05-26T21:19:27.660Z,68.40
2019-05-26T21:21:57.082Z,68.70
2019-05-26T21:24:26.470Z,68.90
2019-05-26T21:26:55.897Z,69.20
2019-05-26T21:29:25.313Z,69.50
2019-05-26T21:31:54.772Z,69.70
2019-05-26T21:34:24.168Z,70.10
2019-05-26T21:36:53.612Z,70.20
2019-05-26T21:39:23.010Z,70.40
2019-05-26T21:41:52.406Z,70.60
2019-05-26T21:44:22.012Z,70.80
2019-05-26T21:46:51.441Z,71.00
2019-05-26T21:49:20.920Z,71.20
2019-05-26T21:51:53.087Z,71.50
2019-05-26T21:54:22.495Z,71.70
2019-05-26T21:56:51.994Z,71.90
2019-05-26T21:59:21.465Z,72.30
2019-05-26T22:01:50.907Z,72.70
2019-05-26T22:04:20.519Z,73.00
2019-05-26T22:06:49.916Z,73.30
2019-05-26T22:09:19.370Z,73.50
2019-05-26T22:11:48.985Z,73.70
2019-05-26T22:14:18.410Z,73.90
2019-05-26T22:16:47.795Z,74.00
2019-05-26T22:19:17.282Z,74.10
2019-05-26T22:21:46.660Z,74.30
2019-05-26T22:24:16.099Z,74.50
2019-05-26T22:26:45.515Z,74.70
2019-05-26T22:29:14.920Z,74.70
2019-05-26T22:31:44.320Z,74.80
2019-05-26T22:34:13.706Z,74.90
2019-05-26T22:36:43.138Z,75.10
2019-05-26T22:39:12.527Z,75.30
2019-05-26T22:41:41.948Z,75.40
2019-05-26T22:44:11.372Z,75.60
2019-05-26T22:46:40.893Z,75.60
2019-05-26T22:49:10.263Z,75.90
2019-05-26T22:51:39.675Z,76.00
2019-05-26T22:54:09.064Z,76.00
2019-05-26T22:56:38.499Z,76.20
2019-05-26T22:59:07.906Z,76.30
2019-05-26T23:01:37.355Z,76.50
2019-05-26T23:04:06.763Z,76.60
2019-05-26T23:06:36.180Z,76.90
2019-05-26T23:09:06.260Z,77.20
2019-05-26T23:11:35.651Z,77.50
2019-05-26T23:14:05.052Z,77.90
2019-05-26T23:16:34.963Z,78.10
2019-05-26T23:19:18.291Z,78.40
2019-05-26T23:21:35.397Z,78.50
2019-05-26T23:24:04.814Z,78.60
2019-05-26T23:26:34.671Z,79.50
2019-05-26T23:29:04.053Z,79.10
2019-05-26T23:31:33.485Z,79.40
2019-05-26T23:34:02.872Z,79.60
2019-05-26T23:36:32.291Z,80.00
2019-05-26T23:39:01.748Z,80.80
2019-05-26T23:41:31.188Z,80.40
2019-05-26T23:44:00.574Z,80.50
2019-05-26T23:46:30.067Z,80.60
2019-05-26T23:48:59.504Z,80.70
2019-05-26T23:51:28.890Z,80.70
2019-05-26T23:53:58.355Z,80.90
2019-05-26T23:56:27.746Z,80.90
2019-05-26T23:58:57.181Z,81.00
